Detall de PIREP

Printer-friendly versionPDF version

[2010/12/19 16:49:00]
Flight IATA:CT2112
Pilot Number:026
Company ICAO:CAT
Aircraft Type:DC85/A
PAX:136
Departing Airport: LEVC
Destination Airport: LEZL
Alternate Airport:LEMG
Online: VATSIM
Route:ASTRO UM985 VIBAS
Flight Level:FL250
No Slew and time accel
No pause
Crash detect
Detect pilot in Cockpit between each 30 and 45 minutes
16:49 Zero fuel Weight: 177988 Lbs, Fuel Weight: 29001 Lbs
16:49 VATSIM:LEVC 191630Z VRB02KT 9999 FEW022 13/11 Q1003 NOSIG
16:49 VATSIM:LEZL 191630Z 26011KT 9999 FEW030 BKN040 14/07 Q1010 NOSIG
16:49 VOICE CATALONIAN / LEVC HUB ROUTE CT2112
16:56 Parking Brakes off
17:03 Take-off
17:03 Take off Weight: 205931 Lbs
17:03 Wind: 279º @ 007 Knots Heading: 295º
17:03 POS N39º 29´ 29´´ W000º 29´ 14´´
17:03 Gear Up: 171 Knots
17:03 Flaps:3 at 171 Knots
17:04 Flaps:2 at 202 Knots
17:05 Flaps:1 at 232 Knots
17:06 Flaps:0 at 243 Knots
17:16 TOC
17:16 Fuel Weight: 23930 Lb
17:18 Wind:298º@049 Knots Heading: 237º Ground Speed: 430 Knots Altitude 24757 ft
17:33 Wind:268º@032 Knots Heading: 228º Ground Speed: 424 Knots Altitude 24872 ft
17:33 TOD
17:33 Fuel Weight: 19864 Lb
17:48 Wind:261º@016 Knots Heading: 273º Ground Speed: 251 Knots Altitude 5091 ft
17:56 Gear Down: 221 Knots
17:56 Flaps:1 at 192 Knots
17:56 Flaps:2 at 172 Knots
17:56 Flaps:3 at 169 Knots
17:57 Flaps:4 at 184 Knots
17:57 Flaps:5 at 179 Knots
17:58 TouchDown:Rate -162 ft/min Speed: 122 Knots
17:58 VATSIM:LEZL 191730Z 27011KT 9999 BKN045 13/06 Q1011 NOSIG
17:58 Land
17:58 Wind:275º@011 Knots
17:58 Heading: 281º
17:58 Flight Duration: 00:55
17:58 Landing Weight: 195600 Lbs
17:58 POS N37º 25´ 04´´ W005º 53´ 43´´
18:02 Parking brakes on
18:02 Block to Block Duration: 01:06
18:02 Final Fuel: 17261 Lbls
18:02 Spent Fuel: 11739Lbls
18:02 Flight Length: 304 NM
18:02 TOD Land Length: 114 NM

Exportar CSV

Powered by Drupal - Modified by Danger4k